createdAt,value
2022-09-16T00:02:16.552Z,15.40
2022-09-16T00:04:48.102Z,15.20
2022-09-16T00:07:16.362Z,15.40
2022-09-16T00:09:44.395Z,15.40
2022-09-16T00:12:12.658Z,15.30
2022-09-16T00:14:42.352Z,15.30
2022-09-16T00:17:12.976Z,15.30
2022-09-16T00:19:41.208Z,15.30
2022-09-16T00:22:09.258Z,15.30
2022-09-16T00:24:37.659Z,15.30
2022-09-16T00:27:06.029Z,15.20
2022-09-16T00:29:34.129Z,15.20
2022-09-16T00:32:03.924Z,15.20
2022-09-16T00:34:32.154Z,15.30
2022-09-16T00:37:00.354Z,15.20
2022-09-16T00:39:28.565Z,15.20
2022-09-16T00:41:57.081Z,15.20
2022-09-16T00:44:52.743Z,15.10
2022-09-16T00:47:27.772Z,15.00
2022-09-16T00:49:59.388Z,14.90
2022-09-16T00:52:29.337Z,15.00
2022-09-16T00:54:57.651Z,15.10
2022-09-16T00:57:25.885Z,15.00
2022-09-16T00:59:56.551Z,15.10
2022-09-16T01:02:29.252Z,15.10
2022-09-16T01:05:03.731Z,15.00
2022-09-16T01:07:37.048Z,15.00
2022-09-16T01:10:06.152Z,15.10
2022-09-16T01:12:36.062Z,15.00
2022-09-16T01:15:06.337Z,15.00
2022-09-16T01:17:47.456Z,15.00
2022-09-16T01:20:56.306Z,15.00
2022-09-16T01:23:59.350Z,15.10
2022-09-16T01:26:54.975Z,15.10
2022-09-16T01:29:40.239Z,15.10
2022-09-16T01:32:17.516Z,15.00
2022-09-16T01:34:54.881Z,14.90
2022-09-16T01:37:33.869Z,14.90
2022-09-16T01:40:10.655Z,14.90
2022-09-16T01:42:48.052Z,14.70
2022-09-16T01:45:21.733Z,14.50
2022-09-16T01:47:59.590Z,14.60
2022-09-16T01:50:31.384Z,14.70
2022-09-16T01:53:08.226Z,14.70
2022-09-16T01:55:41.975Z,14.90
2022-09-16T01:58:16.114Z,14.70
2022-09-16T02:00:46.878Z,14.80
2022-09-16T02:03:20.060Z,14.80
2022-09-16T02:05:52.514Z,14.80
2022-09-16T02:08:25.623Z,15.00
2022-09-16T02:10:58.388Z,14.90
2022-09-16T02:13:30.892Z,14.90
2022-09-16T02:16:05.485Z,14.90
2022-09-16T02:18:38.724Z,14.90
2022-09-16T02:21:12.651Z,14.90
2022-09-16T02:23:43.443Z,15.00
2022-09-16T02:26:20.001Z,15.00
2022-09-16T02:28:51.851Z,14.80
2022-09-16T02:31:24.791Z,14.70
2022-09-16T02:33:57.886Z,14.40
2022-09-16T02:36:27.851Z,14.40
2022-09-16T02:39:01.113Z,14.50
2022-09-16T02:41:29.544Z,14.50
2022-09-16T02:43:57.757Z,14.60
2022-09-16T02:46:34.889Z,14.70
2022-09-16T02:49:14.610Z,14.60
2022-09-16T02:51:52.820Z,14.60
2022-09-16T02:54:26.628Z,14.60
2022-09-16T02:56:57.373Z,14.50
2022-09-16T02:59:25.744Z,14.50
2022-09-16T03:01:54.024Z,14.60
2022-09-16T03:04:25.885Z,14.70
2022-09-16T03:06:53.929Z,14.70
2022-09-16T03:09:25.183Z,14.70
2022-09-16T03:12:14.883Z,14.70
2022-09-16T03:15:10.415Z,14.80
2022-09-16T03:17:53.174Z,14.70
2022-09-16T03:20:36.796Z,14.60
2022-09-16T03:23:15.153Z,14.50
2022-09-16T03:25:53.268Z,14.50
2022-09-16T03:28:26.684Z,14.40
2022-09-16T03:31:01.848Z,14.50
2022-09-16T03:33:38.168Z,14.40
2022-09-16T03:36:10.236Z,14.40
2022-09-16T03:38:40.428Z,14.40
2022-09-16T03:41:09.833Z,14.40
2022-09-16T03:43:38.171Z,14.30
2022-09-16T03:46:11.469Z,14.50
2022-09-16T03:48:39.972Z,14.50
2022-09-16T03:51:09.665Z,14.50
2022-09-16T03:53:37.744Z,14.60
2022-09-16T03:56:06.253Z,14.50
2022-09-16T03:58:34.556Z,14.50
2022-09-16T04:01:03.087Z,14.50
2022-09-16T04:03:33.463Z,14.50
2022-09-16T04:06:01.626Z,14.50
2022-09-16T04:08:31.469Z,14.50
2022-09-16T04:11:26.271Z,14.60
2022-09-16T04:13:54.280Z,14.60
2022-09-16T04:16:24.597Z,14.70
2022-09-16T04:18:52.776Z,14.70
2022-09-16T04:21:21.180Z,14.70
2022-09-16T04:23:50.930Z,14.70
2022-09-16T04:26:21.609Z,14.60
2022-09-16T04:28:49.674Z,14.60
2022-09-16T04:31:18.028Z,14.60
2022-09-16T04:33:46.155Z,14.50
2022-09-16T04:36:16.435Z,14.50
2022-09-16T04:38:46.071Z,14.50
2022-09-16T04:41:17.914Z,14.40
2022-09-16T04:43:51.257Z,14.40
2022-09-16T04:46:19.551Z,14.50
2022-09-16T04:48:49.488Z,14.40
2022-09-16T04:51:18.437Z,14.30
2022-09-16T04:53:47.545Z,14.20
2022-09-16T04:56:18.803Z,14.10
2022-09-16T04:58:49.089Z,14.10
2022-09-16T05:01:21.535Z,14.10
2022-09-16T05:03:51.986Z,14.20
2022-09-16T05:06:21.627Z,14.10
2022-09-16T05:08:50.311Z,13.80
2022-09-16T05:11:21.489Z,13.60
2022-09-16T05:13:50.599Z,13.60
2022-09-16T05:16:20.680Z,13.60
2022-09-16T05:18:50.854Z,13.70
2022-09-16T05:21:23.592Z,13.70
2022-09-16T05:23:53.366Z,13.70
2022-09-16T05:26:26.415Z,13.90
2022-09-16T05:28:55.283Z,13.90
2022-09-16T05:31:25.664Z,13.90
2022-09-16T05:33:57.969Z,13.80
2022-09-16T05:36:34.121Z,13.90
2022-09-16T05:41:55.824Z,14.00
2022-09-16T05:44:24.313Z,14.00
2022-09-16T05:46:52.719Z,14.00
2022-09-16T05:49:21.743Z,14.00
2022-09-16T05:51:50.729Z,14.00
2022-09-16T05:54:19.583Z,13.90
2022-09-16T05:56:50.841Z,13.90
2022-09-16T05:59:22.636Z,13.90
2022-09-16T06:01:51.340Z,14.00
2022-09-16T06:04:19.727Z,14.00
2022-09-16T06:06:48.399Z,14.10
2022-09-16T06:09:19.078Z,14.10
2022-09-16T06:11:49.290Z,14.20
2022-09-16T06:14:18.436Z,14.70
2022-09-16T06:16:48.487Z,14.30
2022-09-16T06:19:19.885Z,14.40
2022-09-16T06:24:18.595Z,14.40
2022-09-16T06:26:47.977Z,14.40
2022-09-16T06:29:17.593Z,14.40
2022-09-16T06:31:47.223Z,14.40
2022-09-16T06:34:18.650Z,14.40
2022-09-16T06:36:47.587Z,14.40
2022-09-16T06:39:17.483Z,14.30
2022-09-16T06:41:47.999Z,14.20
2022-09-16T06:44:17.317Z,14.30
2022-09-16T06:46:51.086Z,14.30
2022-09-16T06:49:19.326Z,14.30
2022-09-16T06:51:47.865Z,14.30
2022-09-16T06:54:16.220Z,14.50
2022-09-16T06:56:44.753Z,14.50
2022-09-16T06:59:14.381Z,14.60
2022-09-16T07:01:42.830Z,14.80
2022-09-16T07:04:17.129Z,14.80
2022-09-16T07:09:40.450Z,14.60
2022-09-16T07:12:09.385Z,14.70
2022-09-16T07:14:37.568Z,15.00
2022-09-16T07:17:06.001Z,15.10
2022-09-16T07:19:35.916Z,15.20
2022-09-16T07:22:04.275Z,15.30
2022-09-16T07:24:34.638Z,15.30
2022-09-16T07:27:03.016Z,15.20
2022-09-16T07:29:31.160Z,15.10
2022-09-16T07:32:00.445Z,15.20
2022-09-16T07:34:28.792Z,14.80
2022-09-16T07:36:58.582Z,15.20
2022-09-16T07:39:27.125Z,15.40
2022-09-16T07:41:55.627Z,15.40
2022-09-16T07:44:24.605Z,15.10
2022-09-16T07:49:23.343Z,15.00
2022-09-16T07:51:52.483Z,14.80
2022-09-16T07:54:25.155Z,14.90
2022-09-16T07:56:58.421Z,15.10
2022-09-16T07:59:26.847Z,15.00
2022-09-16T08:01:57.378Z,15.20
2022-09-16T08:09:39.139Z,15.40
2022-09-16T08:12:10.967Z,15.50
2022-09-16T08:14:39.366Z,15.40
2022-09-16T08:17:07.567Z,15.60
2022-09-16T08:19:39.285Z,15.80
2022-09-16T08:22:07.531Z,15.90
2022-09-16T08:24:37.089Z,16.00
2022-09-16T08:27:05.477Z,15.90
2022-09-16T08:29:36.359Z,15.70
2022-09-16T08:32:05.156Z,15.40
2022-09-16T08:34:33.380Z,15.40
2022-09-16T08:37:01.869Z,15.60
2022-09-16T08:39:32.608Z,15.80
2022-09-16T08:42:29.467Z,15.70
2022-09-16T08:45:09.636Z,15.50
2022-09-16T08:48:03.467Z,15.80
2022-09-16T08:50:37.739Z,15.90
2022-09-16T08:53:13.327Z,15.80
2022-09-16T08:55:48.018Z,15.70
2022-09-16T08:58:21.642Z,15.80
2022-09-16T09:00:57.115Z,16.30
2022-09-16T09:03:38.761Z,16.60
2022-09-16T09:06:51.228Z,16.60
2022-09-16T09:10:15.587Z,16.40
2022-09-16T09:12:53.060Z,16.50
2022-09-16T09:15:50.793Z,16.50
2022-09-16T09:21:20.093Z,16.20
2022-09-16T09:24:03.679Z,17.10
2022-09-16T09:26:40.582Z,17.10
2022-09-16T09:29:34.524Z,17.50
2022-09-16T09:32:17.254Z,16.50
2022-09-16T09:35:01.117Z,16.40
2022-09-16T09:37:45.722Z,16.50
2022-09-16T09:40:18.911Z,16.10
2022-09-16T09:42:54.377Z,15.90
2022-09-16T09:45:28.988Z,16.00
2022-09-16T09:48:09.458Z,16.10
2022-09-16T09:50:42.576Z,16.10
2022-09-16T09:53:23.186Z,16.20
2022-09-16T09:55:59.038Z,16.30
2022-09-16T09:58:35.089Z,16.40
2022-09-16T10:01:03.812Z,16.50
2022-09-16T10:03:33.953Z,16.60
2022-09-16T10:06:02.856Z,16.70
2022-09-16T10:08:37.124Z,16.80
2022-09-16T10:11:17.944Z,16.30
2022-09-16T10:13:51.294Z,16.40
2022-09-16T10:16:21.952Z,16.10
2022-09-16T10:18:58.932Z,16.10
2022-09-16T10:21:39.094Z,15.80
2022-09-16T10:24:07.615Z,15.60
2022-09-16T10:26:42.945Z,15.80
2022-09-16T10:29:19.554Z,15.90
2022-09-16T10:31:48.538Z,15.90
2022-09-16T10:34:22.622Z,15.90
2022-09-16T10:37:01.716Z,16.20
2022-09-16T10:39:31.859Z,16.30
2022-09-16T10:42:00.478Z,16.50
2022-09-16T10:44:32.776Z,16.70
2022-09-16T10:47:05.571Z,16.20
2022-09-16T10:49:40.830Z,16.10
2022-09-16T10:52:18.394Z,16.00
2022-09-16T10:54:47.097Z,16.20
2022-09-16T10:57:25.651Z,16.20
2022-09-16T11:00:11.421Z,16.30
2022-09-16T11:03:28.268Z,16.10
2022-09-16T11:06:10.327Z,16.10
2022-09-16T11:08:53.576Z,16.30
2022-09-16T11:11:35.783Z,16.90
2022-09-16T11:14:12.896Z,17.10
2022-09-16T11:16:57.141Z,17.50
2022-09-16T11:19:34.091Z,17.10
2022-09-16T11:22:19.069Z,17.20
2022-09-16T11:25:20.185Z,16.80
2022-09-16T11:27:56.866Z,16.80
2022-09-16T11:33:12.110Z,17.10
2022-09-16T11:36:04.807Z,17.00
2022-09-16T11:38:43.850Z,16.30
2022-09-16T11:41:21.362Z,16.20
2022-09-16T11:44:06.157Z,16.10
2022-09-16T11:46:42.169Z,16.10
2022-09-16T11:49:31.263Z,16.20
2022-09-16T11:52:15.389Z,16.10
2022-09-16T11:55:01.860Z,16.40
2022-09-16T11:57:35.519Z,17.10
2022-09-16T12:00:09.541Z,17.70
2022-09-16T12:02:46.723Z,17.30
2022-09-16T12:05:19.039Z,17.00
2022-09-16T12:07:53.247Z,16.70
2022-09-16T12:10:26.252Z,16.90
2022-09-16T12:12:59.565Z,16.60
2022-09-16T12:15:32.706Z,16.40
2022-09-16T12:18:09.116Z,16.40
2022-09-16T12:20:42.767Z,16.30
2022-09-16T12:23:18.612Z,16.30
2022-09-16T12:26:06.647Z,16.60
2022-09-16T12:28:43.643Z,16.60
2022-09-16T12:31:23.689Z,16.60
2022-09-16T12:33:57.462Z,16.80
2022-09-16T12:36:31.418Z,16.80
2022-09-16T12:39:03.501Z,17.00
2022-09-16T12:41:49.844Z,17.00
2022-09-16T12:44:38.511Z,17.10
2022-09-16T12:47:23.877Z,17.00
2022-09-16T12:50:37.596Z,17.00
2022-09-16T12:56:00.767Z,16.80
2022-09-16T12:59:01.532Z,16.80
2022-09-16T13:01:36.109Z,16.90
2022-09-16T13:04:10.776Z,17.40
2022-09-16T13:06:48.267Z,17.50
2022-09-16T13:09:24.459Z,17.70
2022-09-16T13:12:35.340Z,17.80
2022-09-16T13:14:52.855Z,18.10
2022-09-16T13:17:31.843Z,18.30
2022-09-16T13:20:14.676Z,18.50
2022-09-16T13:22:49.247Z,18.70
2022-09-16T13:25:24.163Z,18.80
2022-09-16T13:28:01.769Z,18.90
2022-09-16T13:30:35.754Z,19.20
2022-09-16T13:33:26.486Z,19.20
2022-09-16T13:36:17.185Z,18.90
2022-09-16T13:38:49.798Z,18.60
2022-09-16T13:41:32.879Z,18.20
2022-09-16T13:44:25.470Z,18.20
2022-09-16T13:46:55.824Z,18.00
2022-09-16T13:49:27.812Z,17.70
2022-09-16T13:51:56.708Z,17.40
2022-09-16T13:54:48.095Z,17.10
2022-09-16T13:57:33.958Z,16.50
2022-09-16T14:00:17.404Z,16.00
2022-09-16T14:03:28.527Z,15.60
2022-09-16T14:06:22.015Z,15.20
2022-09-16T14:08:59.445Z,15.50
2022-09-16T14:11:36.965Z,16.10
2022-09-16T14:14:15.696Z,16.30
2022-09-16T14:16:55.216Z,16.30
2022-09-16T14:19:29.685Z,16.20
2022-09-16T14:22:14.993Z,16.40
2022-09-16T14:24:44.913Z,16.10
2022-09-16T14:27:28.438Z,16.10
2022-09-16T14:29:58.622Z,16.20
2022-09-16T14:32:30.129Z,16.50
2022-09-16T14:35:04.368Z,16.60
2022-09-16T14:37:33.242Z,16.70
2022-09-16T14:40:08.066Z,16.00
2022-09-16T14:42:36.604Z,16.10
2022-09-16T14:45:08.332Z,16.40
2022-09-16T14:47:51.029Z,16.50
2022-09-16T14:50:25.075Z,16.30
2022-09-16T14:52:57.612Z,16.30
2022-09-16T14:55:31.253Z,16.60
2022-09-16T14:58:00.983Z,16.80
2022-09-16T15:00:33.893Z,17.00
2022-09-16T15:03:07.228Z,17.00
2022-09-16T15:05:38.505Z,14.20
2022-09-16T15:08:15.021Z,13.90
2022-09-16T15:10:52.297Z,13.50
2022-09-16T15:13:27.890Z,13.10
2022-09-16T15:15:58.881Z,13.00
2022-09-16T15:18:32.339Z,13.00
2022-09-16T15:21:06.313Z,12.50
2022-09-16T15:23:36.217Z,12.00
2022-09-16T15:26:16.487Z,12.10
2022-09-16T15:28:57.035Z,12.10
2022-09-16T15:31:30.456Z,11.90
2022-09-16T15:34:00.910Z,11.80
2022-09-16T15:36:39.439Z,12.10
2022-09-16T15:39:23.728Z,12.30
2022-09-16T15:42:06.144Z,12.70
2022-09-16T15:44:37.605Z,12.80
2022-09-16T15:47:19.731Z,12.80
2022-09-16T15:49:52.226Z,12.90
2022-09-16T15:52:22.429Z,12.90
2022-09-16T15:54:54.518Z,13.10
2022-09-16T15:57:32.323Z,13.00
2022-09-16T16:00:11.654Z,13.10
2022-09-16T16:02:49.463Z,13.30
2022-09-16T16:05:20.379Z,13.50
2022-09-16T16:07:52.711Z,13.60
2022-09-16T16:10:24.008Z,13.40
2022-09-16T16:12:54.580Z,13.40
2022-09-16T16:15:25.344Z,13.70
2022-09-16T16:17:54.900Z,13.70
2022-09-16T16:22:56.311Z,13.40
2022-09-16T16:25:24.820Z,13.30
2022-09-16T16:27:53.125Z,13.30
2022-09-16T16:30:21.431Z,13.30
2022-09-16T16:32:49.799Z,13.20
2022-09-16T16:35:20.023Z,13.30
2022-09-16T16:37:48.276Z,13.40
2022-09-16T16:40:19.429Z,13.70
2022-09-16T16:42:47.646Z,13.70
2022-09-16T16:45:16.749Z,14.00
2022-09-16T16:47:46.283Z,13.90
2022-09-16T16:52:43.510Z,13.70
2022-09-16T16:55:11.577Z,13.60
2022-09-16T16:57:42.112Z,13.50
2022-09-16T17:00:13.536Z,13.50
2022-09-16T17:02:41.728Z,13.40
2022-09-16T17:05:10.770Z,13.30
2022-09-16T17:07:38.881Z,13.20
2022-09-16T17:10:07.896Z,13.30
2022-09-16T17:12:37.147Z,13.30
2022-09-16T17:15:08.021Z,13.30
2022-09-16T17:17:36.228Z,13.30
2022-09-16T17:20:05.201Z,13.30
2022-09-16T17:22:35.713Z,13.20
2022-09-16T17:25:04.140Z,13.20
2022-09-16T17:27:35.807Z,13.30
2022-09-16T17:30:04.306Z,13.30
2022-09-16T17:32:33.870Z,13.30
2022-09-16T17:35:02.027Z,13.30
2022-09-16T17:37:30.885Z,13.20
2022-09-16T17:39:59.830Z,13.20
2022-09-16T17:44:56.421Z,13.10
2022-09-16T17:47:24.553Z,13.00
2022-09-16T17:52:25.935Z,15.30
2022-09-16T17:54:54.081Z,13.10
2022-09-16T17:57:22.732Z,13.10
2022-09-16T17:59:51.053Z,13.20
2022-09-16T18:02:23.877Z,13.20
2022-09-16T18:04:53.936Z,13.10
2022-09-16T18:07:22.157Z,13.10
2022-09-16T18:09:50.350Z,13.10
2022-09-16T18:12:21.061Z,13.00
2022-09-16T18:14:49.632Z,13.10
2022-09-16T18:17:18.770Z,13.10
2022-09-16T18:19:47.096Z,12.80
2022-09-16T18:22:16.814Z,12.40
2022-09-16T18:27:19.744Z,12.20
2022-09-16T18:29:51.372Z,12.20
2022-09-16T18:34:52.221Z,12.20
2022-09-16T18:37:25.139Z,12.20
2022-09-16T18:45:01.086Z,11.90
2022-09-16T18:55:05.774Z,11.70
2022-09-16T19:05:08.107Z,11.40
2022-09-16T19:07:44.489Z,11.40
2022-09-16T19:32:52.861Z,12.10
2022-09-16T19:35:24.518Z,12.00
2022-09-16T19:40:27.317Z,12.10
2022-09-16T19:55:47.727Z,12.00
2022-09-16T19:58:21.809Z,12.10
2022-09-16T20:08:37.592Z,12.20
2022-09-16T20:16:09.896Z,11.90
2022-09-16T20:21:15.383Z,11.90
2022-09-16T20:29:00.502Z,11.50
2022-09-16T20:31:34.668Z,11.40
2022-09-16T20:36:40.552Z,11.60
2022-09-16T20:39:15.743Z,11.70
2022-09-16T20:41:45.809Z,11.80
2022-09-16T20:44:18.529Z,11.80
2022-09-16T20:46:50.234Z,11.80
2022-09-16T20:49:20.142Z,11.70
2022-09-16T20:51:51.145Z,11.70
2022-09-16T20:54:21.679Z,11.70
2022-09-16T20:56:51.211Z,11.60
2022-09-16T20:59:21.641Z,11.60
2022-09-16T21:01:50.747Z,11.70
2022-09-16T21:04:21.512Z,11.70
2022-09-16T21:06:51.022Z,11.70
2022-09-16T21:09:21.292Z,11.70
2022-09-16T21:11:50.247Z,11.80
2022-09-16T21:14:21.659Z,11.70
2022-09-16T21:16:51.680Z,11.70
2022-09-16T21:19:20.402Z,11.70
2022-09-16T21:21:51.072Z,11.60
2022-09-16T21:28:23.385Z,11.70
2022-09-16T21:31:01.441Z,12.00
